createdAt,value
2023-12-15T00:02:10.238Z,7.18
2023-12-15T00:04:37.794Z,5.93
2023-12-15T00:07:05.519Z,5.80
2023-12-15T00:09:33.060Z,5.88
2023-12-15T00:12:01.979Z,6.75
2023-12-15T00:14:29.594Z,4.68
2023-12-15T00:16:57.328Z,7.30
2023-12-15T00:19:24.931Z,6.40
2023-12-15T00:21:52.587Z,5.97
2023-12-15T00:24:20.133Z,6.32
2023-12-15T00:26:47.676Z,5.95
2023-12-15T00:29:16.622Z,6.70
2023-12-15T00:31:44.169Z,7.57
2023-12-15T00:34:11.777Z,6.63
2023-12-15T00:36:39.488Z,7.28
2023-12-15T00:39:07.238Z,9.30
2023-12-15T00:41:34.819Z,8.45
2023-12-15T00:44:03.537Z,8.52
2023-12-15T00:46:32.716Z,7.72
2023-12-15T00:49:00.469Z,6.55
2023-12-15T00:51:28.068Z,6.18
2023-12-15T00:53:55.640Z,6.35
2023-12-15T00:56:23.304Z,6.20
2023-12-15T00:58:50.927Z,8.05
2023-12-15T01:01:18.561Z,7.22
2023-12-15T01:03:47.582Z,6.90
2023-12-15T01:06:15.326Z,7.93
2023-12-15T01:08:43.065Z,7.47
2023-12-15T01:11:10.655Z,7.28
2023-12-15T01:13:38.250Z,6.03
2023-12-15T01:16:06.981Z,6.32
2023-12-15T01:18:34.869Z,5.03
2023-12-15T01:21:03.844Z,6.63
2023-12-15T01:23:31.481Z,6.88
2023-12-15T01:25:59.131Z,5.13
2023-12-15T01:28:27.704Z,5.57
2023-12-15T01:30:55.332Z,5.72
2023-12-15T01:33:23.015Z,8.20
2023-12-15T01:35:50.837Z,7.60
2023-12-15T01:38:20.011Z,6.43
2023-12-15T01:40:47.604Z,6.10
2023-12-15T01:43:15.172Z,7.18
2023-12-15T01:45:42.702Z,5.75
2023-12-15T01:48:10.351Z,5.40
2023-12-15T01:50:38.003Z,5.90
2023-12-15T01:53:05.641Z,4.60
2023-12-15T01:55:34.753Z,4.18
2023-12-15T01:58:02.346Z,6.20
2023-12-15T02:00:29.996Z,4.10
2023-12-15T02:02:57.701Z,3.65
2023-12-15T02:05:25.373Z,5.38
2023-12-15T02:07:52.996Z,4.60
2023-12-15T02:10:20.664Z,4.65
2023-12-15T02:12:49.899Z,4.47
2023-12-15T02:15:17.538Z,6.10
2023-12-15T02:17:45.415Z,6.03
2023-12-15T02:20:13.211Z,4.95
2023-12-15T02:22:42.129Z,5.25
2023-12-15T02:25:10.054Z,8.32
2023-12-15T02:27:37.884Z,6.50
2023-12-15T02:30:06.530Z,6.00
2023-12-15T02:32:34.193Z,7.03
2023-12-15T02:35:01.972Z,9.98
2023-12-15T02:37:29.825Z,6.32
2023-12-15T02:39:58.865Z,6.72
2023-12-15T02:42:26.425Z,6.88
2023-12-15T02:44:54.005Z,6.43
2023-12-15T02:47:21.586Z,6.13
2023-12-15T02:49:49.267Z,6.00
2023-12-15T02:52:16.900Z,7.10
2023-12-15T02:54:44.486Z,7.30
2023-12-15T02:57:13.389Z,7.05
2023-12-15T02:59:40.965Z,6.28
2023-12-15T03:02:08.658Z,7.70
2023-12-15T03:04:36.271Z,9.27
2023-12-15T03:07:03.935Z,7.80
2023-12-15T03:09:31.931Z,12.23
2023-12-15T03:11:59.671Z,9.60
2023-12-15T03:14:28.657Z,11.63
2023-12-15T03:16:56.356Z,10.90
2023-12-15T03:19:24.043Z,9.43
2023-12-15T03:21:51.665Z,14.00
2023-12-15T03:24:19.208Z,8.55
2023-12-15T03:26:46.844Z,10.85
2023-12-15T03:29:14.432Z,11.75
2023-12-15T03:31:43.556Z,9.95
2023-12-15T03:34:11.204Z,8.60
2023-12-15T03:36:40.281Z,9.52
2023-12-15T03:39:08.216Z,9.27
2023-12-15T03:41:36.131Z,8.73
2023-12-15T03:44:03.743Z,12.63
2023-12-15T03:46:32.047Z,8.57
2023-12-15T03:49:00.950Z,8.48
2023-12-15T03:51:28.623Z,8.95
2023-12-15T03:53:56.229Z,8.25
2023-12-15T03:56:27.461Z,7.07
2023-12-15T03:58:55.394Z,9.00
2023-12-15T04:01:23.146Z,9.05
2023-12-15T04:03:50.764Z,9.95
2023-12-15T04:06:19.772Z,7.30
2023-12-15T04:08:47.365Z,7.88
2023-12-15T04:11:17.686Z,9.43
2023-12-15T04:13:45.758Z,9.40
2023-12-15T04:16:13.361Z,8.15
2023-12-15T04:18:41.027Z,7.50
2023-12-15T04:21:08.833Z,8.48
2023-12-15T04:23:37.774Z,9.23
2023-12-15T04:26:05.956Z,8.95
2023-12-15T04:28:33.604Z,8.68
2023-12-15T04:31:01.230Z,10.95
2023-12-15T04:33:28.897Z,6.72
2023-12-15T04:35:56.521Z,7.05
2023-12-15T04:38:24.104Z,8.27
2023-12-15T04:40:52.067Z,8.93
2023-12-15T04:43:19.624Z,8.02
2023-12-15T04:45:47.207Z,7.95
2023-12-15T04:48:14.870Z,12.52
2023-12-15T04:50:42.599Z,7.07
2023-12-15T04:53:10.276Z,7.75
2023-12-15T04:55:37.873Z,7.88
2023-12-15T04:58:07.053Z,6.30
2023-12-15T05:00:34.852Z,7.13
2023-12-15T05:03:02.496Z,11.70
2023-12-15T05:05:30.141Z,7.53
2023-12-15T05:07:57.877Z,6.25
2023-12-15T05:10:25.645Z,7.63
2023-12-15T05:12:53.239Z,6.68
2023-12-15T05:15:22.445Z,6.50
2023-12-15T05:17:50.906Z,7.63
2023-12-15T05:20:18.828Z,7.80
2023-12-15T05:22:46.422Z,8.05
2023-12-15T05:25:14.131Z,12.55
2023-12-15T05:27:41.670Z,9.18
2023-12-15T05:30:09.984Z,9.40
2023-12-15T05:32:39.127Z,7.03
2023-12-15T05:35:07.592Z,6.32
2023-12-15T05:37:35.302Z,7.55
2023-12-15T05:40:03.499Z,11.25
2023-12-15T05:42:31.064Z,7.63
2023-12-15T05:44:58.636Z,9.25
2023-12-15T05:47:26.331Z,8.30
2023-12-15T05:49:55.897Z,6.28
2023-12-15T05:52:23.536Z,7.22
2023-12-15T05:54:51.109Z,9.48
2023-12-15T05:57:18.764Z,10.75
2023-12-15T05:59:46.417Z,8.98
2023-12-15T06:02:14.063Z,8.68
2023-12-15T06:04:41.672Z,8.85
2023-12-15T06:07:10.934Z,10.82
2023-12-15T06:09:38.827Z,10.98
2023-12-15T06:12:07.688Z,11.25
2023-12-15T06:14:35.499Z,9.30
2023-12-15T06:17:07.147Z,10.68
2023-12-15T06:19:34.956Z,9.07
2023-12-15T06:22:02.615Z,10.18
2023-12-15T06:24:31.508Z,8.05
2023-12-15T06:26:59.080Z,11.13
2023-12-15T06:29:26.778Z,9.82
2023-12-15T06:31:54.423Z,9.07
2023-12-15T06:34:22.123Z,10.75
2023-12-15T06:36:49.789Z,10.77
2023-12-15T06:39:17.353Z,10.02
2023-12-15T06:41:46.246Z,8.15
2023-12-15T06:44:13.872Z,8.50
2023-12-15T06:46:41.545Z,9.43
2023-12-15T06:49:09.243Z,8.40
2023-12-15T06:51:36.907Z,9.05
2023-12-15T06:54:04.647Z,7.65
2023-12-15T06:56:32.315Z,12.23
2023-12-15T06:59:01.275Z,10.57
2023-12-15T07:01:28.859Z,11.50
2023-12-15T07:03:56.469Z,10.63
2023-12-15T07:06:24.625Z,9.38
2023-12-15T07:08:55.824Z,10.77
2023-12-15T07:11:23.488Z,9.52
2023-12-15T07:13:51.095Z,11.02
2023-12-15T07:16:20.098Z,9.80
2023-12-15T07:18:47.761Z,11.85
2023-12-15T07:21:15.472Z,13.82
2023-12-15T07:23:43.085Z,9.63
2023-12-15T07:26:12.261Z,12.18
2023-12-15T07:28:39.861Z,8.65
2023-12-15T07:31:10.577Z,10.02
2023-12-15T07:33:41.244Z,9.45
2023-12-15T07:36:10.946Z,10.27
2023-12-15T07:38:38.691Z,10.43
2023-12-15T07:41:07.516Z,9.57
2023-12-15T07:43:35.250Z,7.65
2023-12-15T07:46:02.895Z,13.25
2023-12-15T07:48:30.588Z,10.82
2023-12-15T07:50:59.624Z,9.90
2023-12-15T07:53:27.322Z,9.27
2023-12-15T07:55:55.159Z,11.07
2023-12-15T07:58:22.722Z,11.43
2023-12-15T08:00:52.891Z,10.18
2023-12-15T08:03:20.531Z,10.68
2023-12-15T08:05:48.221Z,11.82
2023-12-15T08:08:17.213Z,10.40
2023-12-15T08:10:44.782Z,8.88
2023-12-15T08:13:14.685Z,12.82
2023-12-15T08:15:42.360Z,11.02
2023-12-15T08:18:10.303Z,10.27
2023-12-15T08:20:38.031Z,8.85
2023-12-15T08:23:05.714Z,10.25
2023-12-15T08:25:34.618Z,12.05
2023-12-15T08:28:03.616Z,12.02
2023-12-15T08:30:31.345Z,11.68
2023-12-15T08:33:02.686Z,10.60
2023-12-15T08:35:30.434Z,9.68
2023-12-15T08:37:58.917Z,11.00
2023-12-15T08:40:26.735Z,11.73
2023-12-15T08:42:55.701Z,11.77
2023-12-15T08:45:23.495Z,10.27
2023-12-15T08:47:51.795Z,10.75
2023-12-15T08:50:19.921Z,15.15
2023-12-15T08:52:47.513Z,11.85
2023-12-15T08:55:15.185Z,12.73
2023-12-15T08:57:42.721Z,14.40
2023-12-15T09:00:13.097Z,14.45
2023-12-15T09:02:40.672Z,12.60
2023-12-15T09:05:19.027Z,17.42
2023-12-15T09:07:56.685Z,14.82
2023-12-15T09:10:25.241Z,14.05
2023-12-15T09:12:53.062Z,14.27
2023-12-15T09:15:22.008Z,14.30
2023-12-15T09:17:49.825Z,15.35
2023-12-15T09:20:17.552Z,12.40
2023-12-15T09:22:45.484Z,11.60
2023-12-15T09:25:13.029Z,11.93
2023-12-15T09:27:41.063Z,13.65
2023-12-15T09:30:09.388Z,11.68
2023-12-15T09:32:38.447Z,13.55
2023-12-15T09:35:06.806Z,10.90
2023-12-15T09:37:34.397Z,12.38
2023-12-15T09:40:01.989Z,14.63
2023-12-15T09:42:29.559Z,12.38
2023-12-15T09:45:04.481Z,11.43
2023-12-15T09:47:39.182Z,10.90
2023-12-15T09:50:07.887Z,14.40
2023-12-15T09:52:37.781Z,13.73
2023-12-15T09:57:35.769Z,10.32
2023-12-15T10:00:04.272Z,14.13
2023-12-15T10:02:31.822Z,16.63
2023-12-15T10:05:00.781Z,13.70
2023-12-15T10:07:28.333Z,9.10
2023-12-15T10:09:55.883Z,11.50
2023-12-15T10:12:23.676Z,10.40
2023-12-15T10:14:51.233Z,13.82
2023-12-15T10:17:18.989Z,10.77
2023-12-15T10:19:46.871Z,10.43
2023-12-15T10:22:15.891Z,11.38
2023-12-15T10:24:43.448Z,12.18
2023-12-15T10:27:11.084Z,11.25
2023-12-15T10:29:40.189Z,13.75
2023-12-15T10:32:08.076Z,13.20
2023-12-15T10:34:35.783Z,11.48
2023-12-15T10:37:03.507Z,15.02
2023-12-15T10:39:33.299Z,12.77
2023-12-15T10:42:01.144Z,13.93
2023-12-15T10:44:28.983Z,11.02
2023-12-15T10:46:56.668Z,12.60
2023-12-15T10:49:27.096Z,17.48
2023-12-15T10:51:59.400Z,13.23
2023-12-15T10:54:28.237Z,12.25
2023-12-15T10:56:57.139Z,13.25
2023-12-15T10:59:24.704Z,15.15
2023-12-15T11:01:52.421Z,15.93
2023-12-15T11:04:23.727Z,13.27
2023-12-15T11:06:51.665Z,10.63
2023-12-15T11:09:42.904Z,14.80
2023-12-15T11:12:29.487Z,13.57
2023-12-15T11:15:01.007Z,13.30
2023-12-15T11:17:30.640Z,10.75
2023-12-15T11:20:07.403Z,12.05
2023-12-15T11:22:49.681Z,12.45
2023-12-15T11:25:21.074Z,10.60
2023-12-15T11:28:03.305Z,9.65
2023-12-15T11:30:32.710Z,12.13
2023-12-15T11:33:00.800Z,13.60
2023-12-15T11:35:30.924Z,12.15
2023-12-15T11:37:59.885Z,14.48
2023-12-15T11:40:30.552Z,12.45
2023-12-15T11:42:59.034Z,12.48
2023-12-15T11:45:28.246Z,16.10
2023-12-15T11:47:56.194Z,14.05
2023-12-15T11:50:24.015Z,14.65
2023-12-15T11:52:52.750Z,16.35
2023-12-15T11:55:21.685Z,15.63
2023-12-15T11:57:49.255Z,11.88
2023-12-15T12:00:20.728Z,12.23
2023-12-15T12:02:50.129Z,17.45
2023-12-15T12:05:17.785Z,16.08
2023-12-15T12:07:45.345Z,14.98
2023-12-15T12:10:13.001Z,13.70
2023-12-15T12:12:40.698Z,11.60
2023-12-15T12:15:10.944Z,14.20
2023-12-15T12:17:39.744Z,14.05
2023-12-15T12:20:12.241Z,15.23
2023-12-15T12:22:40.623Z,16.27
2023-12-15T12:25:09.110Z,12.63
2023-12-15T12:27:37.558Z,16.63
2023-12-15T12:30:12.894Z,16.50
2023-12-15T12:32:41.494Z,14.52
2023-12-15T12:35:11.099Z,16.95
2023-12-15T12:37:38.661Z,15.27
2023-12-15T12:40:07.593Z,12.52
2023-12-15T12:42:35.437Z,13.40
2023-12-15T12:45:03.228Z,14.27
2023-12-15T12:47:32.044Z,14.30
2023-12-15T12:50:00.852Z,11.82
2023-12-15T12:52:29.815Z,12.48
2023-12-15T12:54:57.491Z,15.38
2023-12-15T12:57:29.458Z,13.45
2023-12-15T12:59:57.047Z,13.65
2023-12-15T13:02:24.989Z,15.90
2023-12-15T13:04:52.716Z,15.20
2023-12-15T13:07:20.509Z,11.40
2023-12-15T13:09:49.432Z,14.27
2023-12-15T13:12:19.234Z,15.18
2023-12-15T13:17:15.333Z,15.68
2023-12-15T13:19:43.042Z,16.10
2023-12-15T13:22:10.623Z,15.18
2023-12-15T13:24:47.045Z,13.90
2023-12-15T13:27:23.994Z,14.05
2023-12-15T13:29:52.257Z,13.95
2023-12-15T13:32:20.073Z,14.15
2023-12-15T13:34:47.871Z,15.05
2023-12-15T13:37:15.708Z,15.50
2023-12-15T13:39:43.934Z,12.93
2023-12-15T13:42:11.536Z,15.30
2023-12-15T13:44:40.592Z,14.30
2023-12-15T13:47:08.284Z,13.45
2023-12-15T13:49:35.909Z,15.25
2023-12-15T13:52:04.753Z,16.73
2023-12-15T13:54:32.415Z,13.82
2023-12-15T13:57:04.216Z,17.05
2023-12-15T13:59:32.828Z,16.80
2023-12-15T14:02:01.816Z,15.45
2023-12-15T14:04:29.404Z,14.07
2023-12-15T14:07:00.056Z,13.77
2023-12-15T14:09:29.055Z,17.75
2023-12-15T14:11:57.358Z,15.20
2023-12-15T14:14:25.136Z,17.27
2023-12-15T14:16:52.767Z,16.40
2023-12-15T14:19:21.776Z,17.23
2023-12-15T14:21:50.054Z,19.85
2023-12-15T14:24:19.220Z,17.05
2023-12-15T14:26:47.813Z,17.20
2023-12-15T14:29:15.863Z,19.73
2023-12-15T14:31:43.516Z,19.27
2023-12-15T14:34:11.286Z,15.32
2023-12-15T14:36:40.309Z,15.30
2023-12-15T14:39:08.172Z,18.80
2023-12-15T14:41:37.542Z,18.50
2023-12-15T14:44:06.194Z,17.60
2023-12-15T14:46:35.156Z,27.52
2023-12-15T14:49:03.266Z,17.13
2023-12-15T14:51:30.979Z,16.30
2023-12-15T14:53:59.844Z,13.88
2023-12-15T14:56:27.414Z,23.50
2023-12-15T14:58:55.039Z,20.55
2023-12-15T15:01:23.644Z,20.92
2023-12-15T15:03:51.534Z,20.45
2023-12-15T15:06:29.235Z,18.33
2023-12-15T15:09:01.856Z,17.52
2023-12-15T15:11:30.341Z,16.38
2023-12-15T15:13:57.979Z,18.15
2023-12-15T15:16:25.564Z,20.63
2023-12-15T15:18:53.367Z,25.95
2023-12-15T15:21:22.085Z,20.48
2023-12-15T15:23:49.997Z,15.85
2023-12-15T15:26:18.970Z,15.68
2023-12-15T15:28:46.588Z,13.60
2023-12-15T15:31:15.237Z,12.63
2023-12-15T15:33:42.973Z,17.23
2023-12-15T15:36:11.035Z,19.67
2023-12-15T15:38:38.834Z,18.10
2023-12-15T15:41:07.476Z,17.52
2023-12-15T15:43:37.613Z,23.70
2023-12-15T15:46:05.537Z,17.65
2023-12-15T15:48:33.227Z,19.77
2023-12-15T15:51:00.975Z,17.13
2023-12-15T15:53:28.626Z,16.00
2023-12-15T15:55:56.447Z,18.35
2023-12-15T15:58:24.351Z,19.63
2023-12-15T16:00:53.455Z,19.13
2023-12-15T16:03:21.265Z,16.17
2023-12-15T16:05:48.950Z,20.27
2023-12-15T16:08:16.549Z,23.35
2023-12-15T16:10:45.679Z,20.75
2023-12-15T16:13:14.080Z,17.92
2023-12-15T16:15:41.911Z,19.08
2023-12-15T16:18:11.135Z,20.05
2023-12-15T16:20:38.988Z,16.58
2023-12-15T16:23:06.533Z,24.25
2023-12-15T16:25:34.217Z,18.67
2023-12-15T16:28:02.159Z,21.10
2023-12-15T16:30:29.793Z,21.65
2023-12-15T16:32:57.574Z,21.98
2023-12-15T16:35:26.572Z,22.52
2023-12-15T16:37:54.443Z,20.55
2023-12-15T16:40:22.157Z,20.52
2023-12-15T16:42:49.855Z,19.85
2023-12-15T16:45:18.025Z,19.88
2023-12-15T16:47:47.366Z,22.30
2023-12-15T16:50:15.110Z,17.88
2023-12-15T16:52:44.085Z,27.30
2023-12-15T16:55:11.768Z,21.95
2023-12-15T16:57:41.230Z,25.90
2023-12-15T17:00:10.081Z,20.23
2023-12-15T17:02:37.871Z,23.13
2023-12-15T17:05:06.226Z,20.55
2023-12-15T17:07:33.873Z,21.90
2023-12-15T17:10:02.853Z,20.95
2023-12-15T17:12:30.476Z,24.85
2023-12-15T17:14:58.262Z,19.80
2023-12-15T17:17:26.008Z,22.92
2023-12-15T17:19:53.818Z,22.20
2023-12-15T17:22:21.649Z,17.70
2023-12-15T17:24:49.790Z,22.42
2023-12-15T17:27:18.799Z,16.70
2023-12-15T17:29:50.142Z,26.20
2023-12-15T17:32:19.232Z,25.58
2023-12-15T17:34:47.206Z,17.10
2023-12-15T17:37:15.003Z,23.35
2023-12-15T17:39:42.740Z,27.25
2023-12-15T17:42:10.345Z,27.15
2023-12-15T17:44:39.208Z,26.23
2023-12-15T17:47:06.957Z,26.98
2023-12-15T17:49:35.135Z,20.52
2023-12-15T17:52:03.382Z,21.80
2023-12-15T17:54:30.959Z,21.17
2023-12-15T17:56:58.620Z,29.83
2023-12-15T17:59:26.255Z,25.05
2023-12-15T18:01:55.204Z,31.17
2023-12-15T18:04:22.859Z,26.45
2023-12-15T18:06:50.528Z,22.52
2023-12-15T18:09:18.998Z,32.70
2023-12-15T18:11:47.262Z,19.88
2023-12-15T18:14:15.194Z,27.10
2023-12-15T18:16:42.755Z,26.83
2023-12-15T18:19:12.379Z,28.85
2023-12-15T18:21:41.050Z,27.05
2023-12-15T18:24:09.069Z,30.92
2023-12-15T18:26:37.884Z,26.77
2023-12-15T18:29:06.081Z,28.00
2023-12-15T18:31:33.809Z,20.05
2023-12-15T18:34:01.596Z,20.90
2023-12-15T18:36:30.539Z,26.23
2023-12-15T18:38:58.065Z,28.27
2023-12-15T18:41:26.737Z,28.30
2023-12-15T18:43:54.241Z,23.55
2023-12-15T18:46:21.856Z,21.45
2023-12-15T18:48:49.740Z,26.75
2023-12-15T18:51:19.043Z,21.85
2023-12-15T18:53:48.242Z,25.23
2023-12-15T18:56:19.398Z,23.20
2023-12-15T18:58:48.886Z,25.58
2023-12-15T19:01:17.561Z,21.63
2023-12-15T19:03:45.623Z,24.45
2023-12-15T19:06:14.984Z,21.77
2023-12-15T19:08:42.825Z,21.40
2023-12-15T19:11:13.609Z,22.88
2023-12-15T19:13:41.287Z,20.00
2023-12-15T19:16:09.767Z,19.88
2023-12-15T19:18:37.463Z,24.02
2023-12-15T19:21:05.973Z,24.00
2023-12-15T19:23:33.729Z,21.63
2023-12-15T19:26:01.317Z,22.35
2023-12-15T19:28:30.276Z,22.30
2023-12-15T19:30:58.399Z,33.33
2023-12-15T19:33:26.163Z,24.80
2023-12-15T19:35:53.827Z,19.73
2023-12-15T19:38:21.486Z,22.80
2023-12-15T19:40:49.032Z,17.60
2023-12-15T19:43:16.816Z,16.92
2023-12-15T19:45:45.956Z,17.52
2023-12-15T19:48:13.903Z,23.70
2023-12-15T19:50:41.714Z,18.42
2023-12-15T19:53:09.296Z,17.88
2023-12-15T19:55:38.442Z,19.88
2023-12-15T19:58:07.475Z,24.00
2023-12-15T20:00:36.613Z,17.95
2023-12-15T20:03:05.652Z,21.17
2023-12-15T20:05:33.248Z,16.02
2023-12-15T20:08:01.488Z,23.70
2023-12-15T20:10:29.085Z,16.52
2023-12-15T20:12:59.217Z,18.58
2023-12-15T20:15:27.675Z,17.40
2023-12-15T20:17:55.335Z,23.05
2023-12-15T20:20:24.383Z,27.83
2023-12-15T20:22:51.954Z,23.38
2023-12-15T20:25:19.637Z,22.25
2023-12-15T20:27:47.421Z,27.52
2023-12-15T20:30:15.374Z,25.65
2023-12-15T20:32:43.742Z,30.40
2023-12-15T20:35:11.841Z,26.02
2023-12-15T20:37:41.057Z,28.20
2023-12-15T20:40:12.055Z,27.60
2023-12-15T20:42:39.673Z,23.92
2023-12-15T20:45:08.650Z,23.48
2023-12-15T20:47:37.166Z,30.75
2023-12-15T20:50:05.902Z,21.10
2023-12-15T20:52:33.851Z,21.20
2023-12-15T20:55:02.897Z,27.25
2023-12-15T20:57:30.557Z,29.15
2023-12-15T20:59:58.274Z,32.00
2023-12-15T21:02:26.925Z,27.08
2023-12-15T21:04:54.606Z,23.27
2023-12-15T21:07:22.863Z,27.35
2023-12-15T21:09:52.199Z,23.08
2023-12-15T21:12:23.193Z,26.33
2023-12-15T21:14:51.098Z,23.60
2023-12-15T21:17:18.828Z,27.35
2023-12-15T21:19:46.525Z,29.23
2023-12-15T21:22:14.421Z,26.45
2023-12-15T21:24:42.649Z,30.63
2023-12-15T21:27:10.236Z,22.00
2023-12-15T21:29:39.114Z,25.08
2023-12-15T21:32:07.054Z,25.15
2023-12-15T21:34:34.697Z,26.25
2023-12-15T21:37:02.444Z,20.15
2023-12-15T21:39:30.196Z,28.50
2023-12-15T21:41:57.753Z,24.17
2023-12-15T21:44:25.342Z,20.75
2023-12-15T21:46:54.408Z,29.05
2023-12-15T21:49:22.169Z,28.88
2023-12-15T21:51:49.839Z,21.55
2023-12-15T21:54:17.481Z,28.05
2023-12-15T21:56:45.584Z,27.63
2023-12-15T21:59:13.873Z,32.70
2023-12-15T22:01:41.726Z,26.63
2023-12-15T22:04:12.092Z,27.73
2023-12-15T22:06:39.937Z,27.60
2023-12-15T22:09:10.318Z,26.80
2023-12-15T22:11:37.955Z,29.02
2023-12-15T22:14:05.605Z,28.08
2023-12-15T22:16:35.814Z,29.65
2023-12-15T22:19:06.916Z,25.40
2023-12-15T22:21:38.954Z,23.15
2023-12-15T22:24:06.859Z,28.45
2023-12-15T22:26:34.418Z,27.77
2023-12-15T22:29:02.013Z,30.30
2023-12-15T22:31:29.648Z,27.15
2023-12-15T22:33:57.323Z,25.25
2023-12-15T22:36:24.941Z,24.58
2023-12-15T22:38:53.837Z,25.35
2023-12-15T22:41:22.978Z,22.38
2023-12-15T22:43:50.620Z,27.17
2023-12-15T22:46:18.892Z,27.08
2023-12-15T22:48:46.544Z,23.35
2023-12-15T22:51:14.753Z,25.60
2023-12-15T22:53:42.425Z,30.52
2023-12-15T22:56:12.114Z,31.35
2023-12-15T22:58:39.769Z,26.52
2023-12-15T23:01:07.664Z,23.05
2023-12-15T23:03:35.309Z,23.17
2023-12-15T23:06:02.896Z,23.60
2023-12-15T23:08:30.539Z,22.58
2023-12-15T23:10:58.092Z,20.42
2023-12-15T23:13:27.066Z,21.55
2023-12-15T23:15:54.867Z,21.67
2023-12-15T23:18:22.846Z,18.98
2023-12-15T23:20:50.521Z,17.23
2023-12-15T23:23:18.540Z,18.17
2023-12-15T23:25:46.240Z,17.88
2023-12-15T23:28:13.909Z,20.02
2023-12-15T23:30:43.368Z,18.13
2023-12-15T23:33:11.036Z,16.27
2023-12-15T23:35:39.203Z,19.35
2023-12-15T23:38:06.805Z,18.23
2023-12-15T23:40:34.375Z,18.83
2023-12-15T23:43:02.821Z,19.33
2023-12-15T23:45:30.469Z,17.10
2023-12-15T23:47:59.485Z,16.33
2023-12-15T23:50:27.171Z,15.80
2023-12-15T23:52:55.506Z,16.77
2023-12-15T23:55:23.172Z,15.43
2023-12-15T23:57:50.822Z,17.83
